Terminal Aerodrome Forecast
Issued by NWS

Home | Current Version | Previous Version | Text Only | Print | Product List | Glossary On
Versions: 1 2 3 4 5 6 7 8 9 10 11 12 13
000
FTUS45 KRIW 181100
TAFBPI
TAF
KBPI 181129Z 1812/1912 VRB05KT P6SM SCT110
     FM181900 18006KT P6SM SCT100
     FM190000 VRB06KT P6SM VCSH SCT100 BKN140
     FM190600 35005KT P6SM VCSH BKN100=

USA.gov is the U.S. government's official web portal to all federal, state and local government web resources and services.